sensor_id;sensor_type;location;lat;lon;timestamp;temperature;humidity
33741;DHT22;20065;48.380;10.892;2023-02-20T00:00:35;8.00;99.90
33741;DHT22;20065;48.380;10.892;2023-02-20T00:03:25;7.90;99.90
33741;DHT22;20065;48.380;10.892;2023-02-20T00:06:12;8.00;99.90
33741;DHT22;20065;48.380;10.892;2023-02-20T00:08:58;8.00;99.90
33741;DHT22;20065;48.380;10.892;2023-02-20T00:11:44;8.00;99.90
33741;DHT22;20065;48.380;10.892;2023-02-20T00:14:34;8.00;99.90
33741;DHT22;20065;48.380;10.892;2023-02-20T00:17:24;8.00;99.90
33741;DHT22;20065;48.380;10.892;2023-02-20T00:20:10;7.90;99.90
33741;DHT22;20065;48.380;10.892;2023-02-20T00:22:57;7.90;99.90
33741;DHT22;20065;48.380;10.892;2023-02-20T00:25:43;7.90;99.90
33741;DHT22;20065;48.380;10.892;2023-02-20T00:28:30;8.00;99.90
33741;DHT22;20065;48.380;10.892;2023-02-20T00:31:17;8.00;99.90
33741;DHT22;20065;48.380;10.892;2023-02-20T00:34:04;8.00;99.90
33741;DHT22;20065;48.380;10.892;2023-02-20T00:36:50;8.00;99.90
33741;DHT22;20065;48.380;10.892;2023-02-20T00:39:37;7.90;99.90
33741;DHT22;20065;48.380;10.892;2023-02-20T00:42:25;7.80;99.90
33741;DHT22;20065;48.380;10.892;2023-02-20T00:45:13;7.90;99.90
33741;DHT22;20065;48.380;10.892;2023-02-20T00:48:12;7.90;99.90
33741;DHT22;20065;48.380;10.892;2023-02-20T00:51:03;7.90;99.90
33741;DHT22;20065;48.380;10.892;2023-02-20T00:53:50;7.90;99.90
33741;DHT22;20065;48.380;10.892;2023-02-20T00:56:37;7.90;99.90
33741;DHT22;20065;48.380;10.892;2023-02-20T00:59:23;7.80;99.90
33741;DHT22;20065;48.380;10.892;2023-02-20T01:02:10;7.80;99.90
33741;DHT22;20065;48.380;10.892;2023-02-20T01:04:56;7.80;99.90
33741;DHT22;20065;48.380;10.892;2023-02-20T01:07:43;7.90;99.90
33741;DHT22;20065;48.380;10.892;2023-02-20T01:10:29;7.80;99.90
33741;DHT22;20065;48.380;10.892;2023-02-20T01:13:17;7.80;99.90
33741;DHT22;20065;48.380;10.892;2023-02-20T01:16:04;7.80;99.90
33741;DHT22;20065;48.380;10.892;2023-02-20T01:18:51;7.70;99.90
33741;DHT22;20065;48.380;10.892;2023-02-20T01:21:37;7.80;99.90
33741;DHT22;20065;48.380;10.892;2023-02-20T01:24:25;7.80;99.90
33741;DHT22;20065;48.380;10.892;2023-02-20T01:27:11;7.80;99.90
33741;DHT22;20065;48.380;10.892;2023-02-20T01:29:57;7.70;99.90
33741;DHT22;20065;48.380;10.892;2023-02-20T01:32:45;7.80;99.90
33741;DHT22;20065;48.380;10.892;2023-02-20T01:35:37;7.80;99.90
33741;DHT22;20065;48.380;10.892;2023-02-20T01:38:23;7.80;99.90
33741;DHT22;20065;48.380;10.892;2023-02-20T01:41:10;7.80;99.90
33741;DHT22;20065;48.380;10.892;2023-02-20T01:43:57;7.80;99.90
33741;DHT22;20065;48.380;10.892;2023-02-20T01:46:47;7.80;99.90
33741;DHT22;20065;48.380;10.892;2023-02-20T01:49:37;7.70;99.90
33741;DHT22;20065;48.380;10.892;2023-02-20T01:52:28;7.70;99.90
33741;DHT22;20065;48.380;10.892;2023-02-20T01:55:26;7.70;99.90
33741;DHT22;20065;48.380;10.892;2023-02-20T01:58:19;7.70;99.90
33741;DHT22;20065;48.380;10.892;2023-02-20T02:01:06;7.60;99.90
33741;DHT22;20065;48.380;10.892;2023-02-20T02:04:00;7.60;99.90
33741;DHT22;20065;48.380;10.892;2023-02-20T02:06:49;7.60;99.90
33741;DHT22;20065;48.380;10.892;2023-02-20T02:09:54;7.60;99.90
33741;DHT22;20065;48.380;10.892;2023-02-20T02:12:45;7.60;99.90
33741;DHT22;20065;48.380;10.892;2023-02-20T02:15:32;7.80;99.90
33741;DHT22;20065;48.380;10.892;2023-02-20T02:40:13;7.50;99.90
33741;DHT22;20065;48.380;10.892;2023-02-20T02:46:26;7.50;99.90
33741;DHT22;20065;48.380;10.892;2023-02-20T02:52:40;7.40;99.90
33741;DHT22;20065;48.380;10.892;2023-02-20T02:55:36;7.50;99.90
33741;DHT22;20065;48.380;10.892;2023-02-20T02:58:22;7.40;99.90
33741;DHT22;20065;48.380;10.892;2023-02-20T03:01:09;7.40;99.90
33741;DHT22;20065;48.380;10.892;2023-02-20T03:03:59;7.40;99.90
33741;DHT22;20065;48.380;10.892;2023-02-20T03:06:48;7.40;99.90
33741;DHT22;20065;48.380;10.892;2023-02-20T03:09:46;7.40;99.90
33741;DHT22;20065;48.380;10.892;2023-02-20T03:12:37;7.40;99.90
33741;DHT22;20065;48.380;10.892;2023-02-20T03:15:35;7.40;99.90
33741;DHT22;20065;48.380;10.892;2023-02-20T03:18:32;7.30;99.90
33741;DHT22;20065;48.380;10.892;2023-02-20T03:21:21;7.30;99.90
33741;DHT22;20065;48.380;10.892;2023-02-20T03:24:10;7.30;99.90
33741;DHT22;20065;48.380;10.892;2023-02-20T03:27:00;7.80;99.90
33741;DHT22;20065;48.380;10.892;2023-02-20T03:29:48;7.20;99.90
33741;DHT22;20065;48.380;10.892;2023-02-20T03:32:37;7.20;99.90
33741;DHT22;20065;48.380;10.892;2023-02-20T03:35:45;7.10;99.90
33741;DHT22;20065;48.380;10.892;2023-02-20T03:39:01;7.10;99.90
33741;DHT22;20065;48.380;10.892;2023-02-20T03:42:08;7.00;99.90
33741;DHT22;20065;48.380;10.892;2023-02-20T03:45:22;6.90;99.90
33741;DHT22;20065;48.380;10.892;2023-02-20T03:51:09;7.00;99.90
33741;DHT22;20065;48.380;10.892;2023-02-20T03:54:21;7.00;99.90
33741;DHT22;20065;48.380;10.892;2023-02-20T03:57:12;6.90;99.90
33741;DHT22;20065;48.380;10.892;2023-02-20T04:00:19;6.90;99.90
33741;DHT22;20065;48.380;10.892;2023-02-20T04:03:20;6.90;99.90
33741;DHT22;20065;48.380;10.892;2023-02-20T04:06:11;6.80;99.90
33741;DHT22;20065;48.380;10.892;2023-02-20T04:09:09;6.80;99.90
33741;DHT22;20065;48.380;10.892;2023-02-20T04:12:07;6.70;99.90
33741;DHT22;20065;48.380;10.892;2023-02-20T04:15:03;6.70;99.90
33741;DHT22;20065;48.380;10.892;2023-02-20T04:17:57;6.70;99.90
33741;DHT22;20065;48.380;10.892;2023-02-20T04:20:47;6.60;99.90
33741;DHT22;20065;48.380;10.892;2023-02-20T04:23:45;6.70;99.90
33741;DHT22;20065;48.380;10.892;2023-02-20T04:26:33;6.60;99.90
33741;DHT22;20065;48.380;10.892;2023-02-20T04:29:20;6.60;99.90
33741;DHT22;20065;48.380;10.892;2023-02-20T04:32:06;6.50;99.90
33741;DHT22;20065;48.380;10.892;2023-02-20T04:34:55;6.50;99.90
33741;DHT22;20065;48.380;10.892;2023-02-20T04:37:42;6.50;99.90
33741;DHT22;20065;48.380;10.892;2023-02-20T04:40:29;6.50;99.90
33741;DHT22;20065;48.380;10.892;2023-02-20T04:43:15;6.50;99.90
33741;DHT22;20065;48.380;10.892;2023-02-20T04:46:02;6.50;99.90
33741;DHT22;20065;48.380;10.892;2023-02-20T04:48:49;6.50;99.90
33741;DHT22;20065;48.380;10.892;2023-02-20T04:51:41;6.40;99.90
33741;DHT22;20065;48.380;10.892;2023-02-20T04:54:28;6.50;99.90
33741;DHT22;20065;48.380;10.892;2023-02-20T04:57:15;6.50;99.90
33741;DHT22;20065;48.380;10.892;2023-02-20T05:00:01;6.50;99.90
33741;DHT22;20065;48.380;10.892;2023-02-20T05:02:48;6.50;99.90
33741;DHT22;20065;48.380;10.892;2023-02-20T05:05:34;6.40;99.90
33741;DHT22;20065;48.380;10.892;2023-02-20T05:08:20;6.40;99.90
33741;DHT22;20065;48.380;10.892;2023-02-20T05:11:09;6.30;99.90
33741;DHT22;20065;48.380;10.892;2023-02-20T05:13:55;6.30;99.90
33741;DHT22;20065;48.380;10.892;2023-02-20T05:16:42;6.20;99.90
33741;DHT22;20065;48.380;10.892;2023-02-20T05:19:30;6.10;99.90
33741;DHT22;20065;48.380;10.892;2023-02-20T05:22:16;6.10;99.90
33741;DHT22;20065;48.380;10.892;2023-02-20T05:25:06;6.10;99.90
33741;DHT22;20065;48.380;10.892;2023-02-20T05:27:52;6.20;99.90
33741;DHT22;20065;48.380;10.892;2023-02-20T05:30:38;6.20;99.90
33741;DHT22;20065;48.380;10.892;2023-02-20T05:33:25;6.20;99.90
33741;DHT22;20065;48.380;10.892;2023-02-20T05:36:11;6.20;99.90
33741;DHT22;20065;48.380;10.892;2023-02-20T05:38:57;6.20;99.90
33741;DHT22;20065;48.380;10.892;2023-02-20T05:41:44;6.20;99.90
33741;DHT22;20065;48.380;10.892;2023-02-20T05:44:30;6.20;99.90
33741;DHT22;20065;48.380;10.892;2023-02-20T05:47:16;6.20;99.90
33741;DHT22;20065;48.380;10.892;2023-02-20T05:50:04;6.10;99.90
33741;DHT22;20065;48.380;10.892;2023-02-20T05:52:50;6.10;99.90
33741;DHT22;20065;48.380;10.892;2023-02-20T05:55:36;6.10;99.90
33741;DHT22;20065;48.380;10.892;2023-02-20T05:58:23;6.10;99.90
33741;DHT22;20065;48.380;10.892;2023-02-20T06:01:21;6.00;99.90
33741;DHT22;20065;48.380;10.892;2023-02-20T06:04:07;5.90;99.90
33741;DHT22;20065;48.380;10.892;2023-02-20T06:06:53;5.90;99.90
33741;DHT22;20065;48.380;10.892;2023-02-20T06:09:43;6.00;99.90
33741;DHT22;20065;48.380;10.892;2023-02-20T06:12:29;6.00;99.90
33741;DHT22;20065;48.380;10.892;2023-02-20T06:15:16;6.00;99.90
33741;DHT22;20065;48.380;10.892;2023-02-20T06:18:02;5.90;99.90
33741;DHT22;20065;48.380;10.892;2023-02-20T06:20:48;6.00;99.90
33741;DHT22;20065;48.380;10.892;2023-02-20T06:23:38;5.90;99.90
33741;DHT22;20065;48.380;10.892;2023-02-20T06:26:25;5.90;99.90
33741;DHT22;20065;48.380;10.892;2023-02-20T06:29:12;5.90;99.90
33741;DHT22;20065;48.380;10.892;2023-02-20T06:31:59;5.90;99.90
33741;DHT22;20065;48.380;10.892;2023-02-20T06:34:45;6.00;99.90
33741;DHT22;20065;48.380;10.892;2023-02-20T06:37:31;6.10;99.90
33741;DHT22;20065;48.380;10.892;2023-02-20T06:40:17;6.00;99.90
33741;DHT22;20065;48.380;10.892;2023-02-20T06:43:04;5.90;99.90
33741;DHT22;20065;48.380;10.892;2023-02-20T06:45:50;5.90;99.90
33741;DHT22;20065;48.380;10.892;2023-02-20T06:48:47;5.90;99.90
33741;DHT22;20065;48.380;10.892;2023-02-20T06:51:34;5.90;99.90
33741;DHT22;20065;48.380;10.892;2023-02-20T06:54:21;5.90;99.90
33741;DHT22;20065;48.380;10.892;2023-02-20T06:57:07;5.80;99.90
33741;DHT22;20065;48.380;10.892;2023-02-20T06:59:53;5.90;99.90
33741;DHT22;20065;48.380;10.892;2023-02-20T07:02:40;5.90;99.90
33741;DHT22;20065;48.380;10.892;2023-02-20T07:05:26;5.90;99.90
33741;DHT22;20065;48.380;10.892;2023-02-20T07:08:14;6.00;99.90
33741;DHT22;20065;48.380;10.892;2023-02-20T07:11:00;6.00;99.90
33741;DHT22;20065;48.380;10.892;2023-02-20T07:13:47;6.00;99.90
33741;DHT22;20065;48.380;10.892;2023-02-20T07:16:33;6.00;99.90
33741;DHT22;20065;48.380;10.892;2023-02-20T07:19:19;6.00;99.90
33741;DHT22;20065;48.380;10.892;2023-02-20T07:22:15;6.00;99.90
33741;DHT22;20065;48.380;10.892;2023-02-20T07:25:04;6.10;99.90
33741;DHT22;20065;48.380;10.892;2023-02-20T07:27:53;6.10;99.90
33741;DHT22;20065;48.380;10.892;2023-02-20T07:30:43;6.20;99.90
33741;DHT22;20065;48.380;10.892;2023-02-20T07:33:29;6.30;99.90
33741;DHT22;20065;48.380;10.892;2023-02-20T07:36:16;6.20;99.90
33741;DHT22;20065;48.380;10.892;2023-02-20T07:39:03;6.20;99.90
33741;DHT22;20065;48.380;10.892;2023-02-20T07:41:51;6.30;99.90
33741;DHT22;20065;48.380;10.892;2023-02-20T07:44:56;6.20;99.90
33741;DHT22;20065;48.380;10.892;2023-02-20T07:47:42;6.30;99.90
33741;DHT22;20065;48.380;10.892;2023-02-20T07:50:28;6.40;99.90
33741;DHT22;20065;48.380;10.892;2023-02-20T07:53:16;6.50;99.90
33741;DHT22;20065;48.380;10.892;2023-02-20T07:56:04;6.50;99.90
33741;DHT22;20065;48.380;10.892;2023-02-20T07:58:50;6.60;99.90
33741;DHT22;20065;48.380;10.892;2023-02-20T08:01:37;6.70;99.90
33741;DHT22;20065;48.380;10.892;2023-02-20T08:04:23;6.80;99.90
33741;DHT22;20065;48.380;10.892;2023-02-20T08:07:09;6.80;99.90
33741;DHT22;20065;48.380;10.892;2023-02-20T08:09:55;6.90;99.90
33741;DHT22;20065;48.380;10.892;2023-02-20T08:12:42;7.00;99.90
33741;DHT22;20065;48.380;10.892;2023-02-20T08:15:28;6.90;99.90
33741;DHT22;20065;48.380;10.892;2023-02-20T08:18:14;7.00;99.90
33741;DHT22;20065;48.380;10.892;2023-02-20T08:21:01;7.10;99.90
33741;DHT22;20065;48.380;10.892;2023-02-20T08:23:47;7.10;99.90
33741;DHT22;20065;48.380;10.892;2023-02-20T08:26:33;7.20;99.90
33741;DHT22;20065;48.380;10.892;2023-02-20T08:29:19;7.20;99.90
33741;DHT22;20065;48.380;10.892;2023-02-20T08:32:06;7.30;99.90
33741;DHT22;20065;48.380;10.892;2023-02-20T08:34:52;7.40;99.90
33741;DHT22;20065;48.380;10.892;2023-02-20T08:37:38;7.50;99.90
33741;DHT22;20065;48.380;10.892;2023-02-20T08:40:24;7.60;99.90
33741;DHT22;20065;48.380;10.892;2023-02-20T08:43:10;7.70;99.90
33741;DHT22;20065;48.380;10.892;2023-02-20T08:45:56;7.70;99.90
33741;DHT22;20065;48.380;10.892;2023-02-20T08:48:43;7.80;99.90
33741;DHT22;20065;48.380;10.892;2023-02-20T08:51:29;8.00;99.90
33741;DHT22;20065;48.380;10.892;2023-02-20T08:54:16;8.20;99.90
33741;DHT22;20065;48.380;10.892;2023-02-20T08:57:02;8.30;99.90
33741;DHT22;20065;48.380;10.892;2023-02-20T08:59:48;8.40;99.90
33741;DHT22;20065;48.380;10.892;2023-02-20T09:02:34;8.80;99.90
33741;DHT22;20065;48.380;10.892;2023-02-20T09:05:23;9.20;99.90
33741;DHT22;20065;48.380;10.892;2023-02-20T09:08:09;9.60;99.90
33741;DHT22;20065;48.380;10.892;2023-02-20T09:10:56;9.40;99.90
33741;DHT22;20065;48.380;10.892;2023-02-20T09:13:43;9.90;99.90
33741;DHT22;20065;48.380;10.892;2023-02-20T09:16:29;10.00;99.90
33741;DHT22;20065;48.380;10.892;2023-02-20T09:19:16;10.80;99.90
33741;DHT22;20065;48.380;10.892;2023-02-20T09:22:02;10.90;99.90
33741;DHT22;20065;48.380;10.892;2023-02-20T09:24:49;11.10;99.90
33741;DHT22;20065;48.380;10.892;2023-02-20T09:27:35;11.30;99.90
33741;DHT22;20065;48.380;10.892;2023-02-20T09:30:22;10.80;99.90
33741;DHT22;20065;48.380;10.892;2023-02-20T09:33:08;11.80;99.90
33741;DHT22;20065;48.380;10.892;2023-02-20T09:35:54;13.50;99.90
33741;DHT22;20065;48.380;10.892;2023-02-20T09:38:41;14.50;99.90
33741;DHT22;20065;48.380;10.892;2023-02-20T09:44:19;13.00;99.90
33741;DHT22;20065;48.380;10.892;2023-02-20T09:50:48;11.60;99.90
33741;DHT22;20065;48.380;10.892;2023-02-20T09:54:00;11.60;99.90
33741;DHT22;20065;48.380;10.892;2023-02-20T09:56:53;11.60;99.90
33741;DHT22;20065;48.380;10.892;2023-02-20T10:02:51;11.90;99.90
33741;DHT22;20065;48.380;10.892;2023-02-20T10:05:38;11.60;99.90
33741;DHT22;20065;48.380;10.892;2023-02-20T10:08:26;11.30;99.90
33741;DHT22;20065;48.380;10.892;2023-02-20T10:12:07;11.40;99.90
33741;DHT22;20065;48.380;10.892;2023-02-20T10:14:38;11.60;99.90
33741;DHT22;20065;48.380;10.892;2023-02-20T10:17:46;12.10;99.90
33741;DHT22;20065;48.380;10.892;2023-02-20T10:23:52;14.20;99.90
33741;DHT22;20065;48.380;10.892;2023-02-20T10:26:46;15.70;99.90
33741;DHT22;20065;48.380;10.892;2023-02-20T10:29:34;16.40;99.90
33741;DHT22;20065;48.380;10.892;2023-02-20T10:32:41;17.30;99.70
33741;DHT22;20065;48.380;10.892;2023-02-20T10:35:46;18.00;97.40
33741;DHT22;20065;48.380;10.892;2023-02-20T10:38:48;18.10;96.40
33741;DHT22;20065;48.380;10.892;2023-02-20T10:45:03;18.70;95.20
33741;DHT22;20065;48.380;10.892;2023-02-20T10:48:01;17.50;95.30
33741;DHT22;20065;48.380;10.892;2023-02-20T10:50:53;18.20;95.00
33741;DHT22;20065;48.380;10.892;2023-02-20T10:53:57;18.50;93.80
33741;DHT22;20065;48.380;10.892;2023-02-20T10:59:43;17.70;95.70
33741;DHT22;20065;48.380;10.892;2023-02-20T11:02:39;18.00;94.70
33741;DHT22;20065;48.380;10.892;2023-02-20T11:05:27;18.50;95.20
33741;DHT22;20065;48.380;10.892;2023-02-20T11:08:17;18.30;93.80
33741;DHT22;20065;48.380;10.892;2023-02-20T11:11:36;18.60;93.20
33741;DHT22;20065;48.380;10.892;2023-02-20T11:14:32;18.80;93.20
33741;DHT22;20065;48.380;10.892;2023-02-20T11:17:20;19.50;92.80
33741;DHT22;20065;48.380;10.892;2023-02-20T11:23:42;17.30;94.30
33741;DHT22;20065;48.380;10.892;2023-02-20T11:26:31;17.20;94.30
33741;DHT22;20065;48.380;10.892;2023-02-20T11:29:19;16.60;94.50
33741;DHT22;20065;48.380;10.892;2023-02-20T11:32:35;15.60;95.30
33741;DHT22;20065;48.380;10.892;2023-02-20T11:35:24;14.80;97.90
33741;DHT22;20065;48.380;10.892;2023-02-20T11:38:23;15.00;97.50
33741;DHT22;20065;48.380;10.892;2023-02-20T11:41:30;15.10;96.80
33741;DHT22;20065;48.380;10.892;2023-02-20T11:44:20;14.90;97.40
33741;DHT22;20065;48.380;10.892;2023-02-20T11:47:37;15.60;97.00
33741;DHT22;20065;48.380;10.892;2023-02-20T11:53:31;17.50;94.00
33741;DHT22;20065;48.380;10.892;2023-02-20T11:56:27;17.20;94.00
33741;DHT22;20065;48.380;10.892;2023-02-20T12:02:26;16.80;94.10
33741;DHT22;20065;48.380;10.892;2023-02-20T12:05:13;16.40;94.80
33741;DHT22;20065;48.380;10.892;2023-02-20T12:08:00;16.70;94.30
33741;DHT22;20065;48.380;10.892;2023-02-20T12:10:48;17.00;94.60
33741;DHT22;20065;48.380;10.892;2023-02-20T12:13:38;16.90;95.00
33741;DHT22;20065;48.380;10.892;2023-02-20T12:19:50;15.40;95.80
33741;DHT22;20065;48.380;10.892;2023-02-20T12:29:27;14.50;96.40
33741;DHT22;20065;48.380;10.892;2023-02-20T12:32:31;14.20;97.20
33741;DHT22;20065;48.380;10.892;2023-02-20T12:35:30;14.20;97.40
33741;DHT22;20065;48.380;10.892;2023-02-20T12:38:54;14.00;97.90
33741;DHT22;20065;48.380;10.892;2023-02-20T12:47:57;13.90;98.50
33741;DHT22;20065;48.380;10.892;2023-02-20T13:00:02;13.80;99.20
33741;DHT22;20065;48.380;10.892;2023-02-20T13:02:53;13.80;99.50
33741;DHT22;20065;48.380;10.892;2023-02-20T13:05:42;13.90;99.50
33741;DHT22;20065;48.380;10.892;2023-02-20T13:11:42;13.80;99.20
33741;DHT22;20065;48.380;10.892;2023-02-20T13:17:53;13.70;99.40
33741;DHT22;20065;48.380;10.892;2023-02-20T13:23:49;13.50;99.90
33741;DHT22;20065;48.380;10.892;2023-02-20T13:29:28;13.70;99.90
33741;DHT22;20065;48.380;10.892;2023-02-20T13:38:19;13.80;99.90
33741;DHT22;20065;48.380;10.892;2023-02-20T13:41:08;13.90;99.30
33741;DHT22;20065;48.380;10.892;2023-02-20T13:43:54;14.00;99.20
33741;DHT22;20065;48.380;10.892;2023-02-20T13:47:12;14.10;99.50
33741;DHT22;20065;48.380;10.892;2023-02-20T13:50:42;14.00;99.00
33741;DHT22;20065;48.380;10.892;2023-02-20T13:53:28;13.90;99.30
33741;DHT22;20065;48.380;10.892;2023-02-20T13:59:01;13.80;99.90
33741;DHT22;20065;48.380;10.892;2023-02-20T14:01:59;13.90;99.90
33741;DHT22;20065;48.380;10.892;2023-02-20T14:07:44;13.90;98.90
33741;DHT22;20065;48.380;10.892;2023-02-20T14:10:36;14.00;99.20
33741;DHT22;20065;48.380;10.892;2023-02-20T14:13:23;14.00;99.20
33741;DHT22;20065;48.380;10.892;2023-02-20T14:16:29;14.10;99.60
33741;DHT22;20065;48.380;10.892;2023-02-20T14:19:25;14.10;99.80
33741;DHT22;20065;48.380;10.892;2023-02-20T14:22:20;14.00;99.50
33741;DHT22;20065;48.380;10.892;2023-02-20T14:25:23;14.00;99.90
33741;DHT22;20065;48.380;10.892;2023-02-20T14:28:14;14.00;99.90
33741;DHT22;20065;48.380;10.892;2023-02-20T14:31:36;14.00;99.90
33741;DHT22;20065;48.380;10.892;2023-02-20T14:40:46;13.90;99.50
33741;DHT22;20065;48.380;10.892;2023-02-20T14:43:35;14.00;99.10
33741;DHT22;20065;48.380;10.892;2023-02-20T14:46:33;14.00;99.30
33741;DHT22;20065;48.380;10.892;2023-02-20T14:49:28;13.90;99.20
33741;DHT22;20065;48.380;10.892;2023-02-20T14:52:21;13.90;99.20
33741;DHT22;20065;48.380;10.892;2023-02-20T14:55:15;13.90;99.40
33741;DHT22;20065;48.380;10.892;2023-02-20T14:58:14;14.00;99.60
33741;DHT22;20065;48.380;10.892;2023-02-20T15:01:00;13.90;99.30
33741;DHT22;20065;48.380;10.892;2023-02-20T15:04:01;13.90;99.10
33741;DHT22;20065;48.380;10.892;2023-02-20T15:06:51;13.90;99.00
33741;DHT22;20065;48.380;10.892;2023-02-20T15:09:41;13.90;99.20
33741;DHT22;20065;48.380;10.892;2023-02-20T15:12:37;14.00;99.40
33741;DHT22;20065;48.380;10.892;2023-02-20T15:15:24;14.00;99.30
33741;DHT22;20065;48.380;10.892;2023-02-20T15:21:37;14.00;99.80
33741;DHT22;20065;48.380;10.892;2023-02-20T15:27:15;14.00;99.90
33741;DHT22;20065;48.380;10.892;2023-02-20T15:30:12;14.00;99.80
33741;DHT22;20065;48.380;10.892;2023-02-20T15:32:59;14.00;99.90
33741;DHT22;20065;48.380;10.892;2023-02-20T15:35:48;14.10;99.90
33741;DHT22;20065;48.380;10.892;2023-02-20T15:38:35;14.10;99.90
33741;DHT22;20065;48.380;10.892;2023-02-20T15:41:22;14.10;99.90
33741;DHT22;20065;48.380;10.892;2023-02-20T15:44:08;14.10;99.90
33741;DHT22;20065;48.380;10.892;2023-02-20T15:46:55;14.10;99.90
33741;DHT22;20065;48.380;10.892;2023-02-20T15:49:41;14.10;99.90
33741;DHT22;20065;48.380;10.892;2023-02-20T15:52:28;14.10;99.90
33741;DHT22;20065;48.380;10.892;2023-02-20T15:55:17;14.10;99.90
33741;DHT22;20065;48.380;10.892;2023-02-20T15:58:10;14.00;99.90
33741;DHT22;20065;48.380;10.892;2023-02-20T16:01:05;14.00;99.90
33741;DHT22;20065;48.380;10.892;2023-02-20T16:03:51;14.00;99.90
33741;DHT22;20065;48.380;10.892;2023-02-20T16:06:37;14.00;99.90
33741;DHT22;20065;48.380;10.892;2023-02-20T16:09:23;13.90;99.90
33741;DHT22;20065;48.380;10.892;2023-02-20T16:12:15;13.90;99.90
33741;DHT22;20065;48.380;10.892;2023-02-20T16:15:02;13.90;99.90
33741;DHT22;20065;48.380;10.892;2023-02-20T16:17:53;13.80;99.90
33741;DHT22;20065;48.380;10.892;2023-02-20T16:20:40;13.70;99.90
33741;DHT22;20065;48.380;10.892;2023-02-20T16:23:27;13.70;99.90
33741;DHT22;20065;48.380;10.892;2023-02-20T16:26:16;13.70;99.90
33741;DHT22;20065;48.380;10.892;2023-02-20T16:29:10;13.60;99.90
33741;DHT22;20065;48.380;10.892;2023-02-20T16:34:48;13.60;99.90
33741;DHT22;20065;48.380;10.892;2023-02-20T16:37:34;13.50;99.90
33741;DHT22;20065;48.380;10.892;2023-02-20T16:40:20;13.50;99.90
33741;DHT22;20065;48.380;10.892;2023-02-20T16:43:07;13.40;99.90
33741;DHT22;20065;48.380;10.892;2023-02-20T16:45:53;13.40;99.90
33741;DHT22;20065;48.380;10.892;2023-02-20T16:48:39;13.30;99.90
33741;DHT22;20065;48.380;10.892;2023-02-20T16:51:28;13.20;99.90
33741;DHT22;20065;48.380;10.892;2023-02-20T16:54:14;13.20;99.90
33741;DHT22;20065;48.380;10.892;2023-02-20T16:57:01;13.20;99.90
33741;DHT22;20065;48.380;10.892;2023-02-20T16:59:47;13.00;99.90
33741;DHT22;20065;48.380;10.892;2023-02-20T17:02:33;12.90;99.90
33741;DHT22;20065;48.380;10.892;2023-02-20T17:05:21;12.70;99.90
33741;DHT22;20065;48.380;10.892;2023-02-20T17:08:07;12.60;99.90
33741;DHT22;20065;48.380;10.892;2023-02-20T17:10:54;12.60;99.90
33741;DHT22;20065;48.380;10.892;2023-02-20T17:13:40;12.60;99.90
33741;DHT22;20065;48.380;10.892;2023-02-20T17:16:26;12.40;99.90
33741;DHT22;20065;48.380;10.892;2023-02-20T17:19:12;12.40;99.90
33741;DHT22;20065;48.380;10.892;2023-02-20T17:21:58;12.20;99.90
33741;DHT22;20065;48.380;10.892;2023-02-20T17:24:45;12.00;99.90
33741;DHT22;20065;48.380;10.892;2023-02-20T17:27:31;11.90;99.90
33741;DHT22;20065;48.380;10.892;2023-02-20T17:30:20;11.80;99.90
33741;DHT22;20065;48.380;10.892;2023-02-20T17:33:08;11.80;99.90
33741;DHT22;20065;48.380;10.892;2023-02-20T17:35:54;11.70;99.90
33741;DHT22;20065;48.380;10.892;2023-02-20T17:38:41;11.70;99.90
33741;DHT22;20065;48.380;10.892;2023-02-20T17:41:29;11.60;99.90
33741;DHT22;20065;48.380;10.892;2023-02-20T17:44:18;11.60;99.90
33741;DHT22;20065;48.380;10.892;2023-02-20T17:47:05;11.60;99.90
33741;DHT22;20065;48.380;10.892;2023-02-20T17:49:56;11.60;99.90
33741;DHT22;20065;48.380;10.892;2023-02-20T17:52:53;11.50;99.90
33741;DHT22;20065;48.380;10.892;2023-02-20T17:55:40;11.40;99.90
33741;DHT22;20065;48.380;10.892;2023-02-20T17:58:30;11.30;99.90
33741;DHT22;20065;48.380;10.892;2023-02-20T18:01:29;11.30;99.90
33741;DHT22;20065;48.380;10.892;2023-02-20T18:04:32;11.20;99.90
33741;DHT22;20065;48.380;10.892;2023-02-20T18:07:19;11.00;99.90
33741;DHT22;20065;48.380;10.892;2023-02-20T18:10:05;10.90;99.90
33741;DHT22;20065;48.380;10.892;2023-02-20T18:12:53;10.80;99.90
33741;DHT22;20065;48.380;10.892;2023-02-20T18:15:49;10.80;99.90
33741;DHT22;20065;48.380;10.892;2023-02-20T18:18:35;10.70;99.90
33741;DHT22;20065;48.380;10.892;2023-02-20T18:21:26;10.60;99.90
33741;DHT22;20065;48.380;10.892;2023-02-20T18:24:23;10.60;99.90
33741;DHT22;20065;48.380;10.892;2023-02-20T18:27:16;10.60;99.90
33741;DHT22;20065;48.380;10.892;2023-02-20T18:30:07;10.50;99.90
33741;DHT22;20065;48.380;10.892;2023-02-20T18:32:53;10.50;99.90
33741;DHT22;20065;48.380;10.892;2023-02-20T18:35:39;10.40;99.90
33741;DHT22;20065;48.380;10.892;2023-02-20T18:38:27;10.40;99.90
33741;DHT22;20065;48.380;10.892;2023-02-20T18:41:13;10.30;99.90
33741;DHT22;20065;48.380;10.892;2023-02-20T18:43:59;10.30;99.90
33741;DHT22;20065;48.380;10.892;2023-02-20T18:46:45;10.20;99.90
33741;DHT22;20065;48.380;10.892;2023-02-20T18:49:31;10.20;99.90
33741;DHT22;20065;48.380;10.892;2023-02-20T18:52:20;10.20;99.90
33741;DHT22;20065;48.380;10.892;2023-02-20T18:55:08;10.20;99.90
33741;DHT22;20065;48.380;10.892;2023-02-20T18:57:56;10.30;99.90
33741;DHT22;20065;48.380;10.892;2023-02-20T19:00:43;10.30;99.90
33741;DHT22;20065;48.380;10.892;2023-02-20T19:03:29;10.30;99.90
33741;DHT22;20065;48.380;10.892;2023-02-20T19:06:26;10.30;99.90
33741;DHT22;20065;48.380;10.892;2023-02-20T19:09:19;10.30;99.90
33741;DHT22;20065;48.380;10.892;2023-02-20T19:12:06;10.30;99.90
33741;DHT22;20065;48.380;10.892;2023-02-20T19:14:52;10.40;99.90
33741;DHT22;20065;48.380;10.892;2023-02-20T19:17:38;10.40;99.90
33741;DHT22;20065;48.380;10.892;2023-02-20T19:20:29;10.50;99.90
33741;DHT22;20065;48.380;10.892;2023-02-20T19:23:16;10.50;99.90
33741;DHT22;20065;48.380;10.892;2023-02-20T19:26:03;10.50;99.90
33741;DHT22;20065;48.380;10.892;2023-02-20T19:28:49;10.50;99.90
33741;DHT22;20065;48.380;10.892;2023-02-20T19:31:36;10.50;99.90
33741;DHT22;20065;48.380;10.892;2023-02-20T19:34:23;10.50;99.90
33741;DHT22;20065;48.380;10.892;2023-02-20T19:37:09;10.50;99.90
33741;DHT22;20065;48.380;10.892;2023-02-20T19:39:59;10.50;99.90
33741;DHT22;20065;48.380;10.892;2023-02-20T19:42:45;10.60;99.90
33741;DHT22;20065;48.380;10.892;2023-02-20T19:45:31;10.60;99.90
33741;DHT22;20065;48.380;10.892;2023-02-20T19:48:18;10.60;99.90
33741;DHT22;20065;48.380;10.892;2023-02-20T19:51:07;10.60;99.90